sensor_id;sensor_type;location;lat;lon;timestamp;P1;durP1;ratioP1;P2;durP2;ratioP2
14858;SDS011;7521;51.700;6.874;2022-08-24T00:00:49;8.60;;;3.13;;
14858;SDS011;7521;51.700;6.874;2022-08-24T00:03:55;7.35;;;2.72;;
14858;SDS011;7521;51.700;6.874;2022-08-24T00:07:03;7.03;;;3.07;;
14858;SDS011;7521;51.700;6.874;2022-08-24T00:10:09;4.47;;;2.73;;
14858;SDS011;7521;51.700;6.874;2022-08-24T00:13:15;11.37;;;3.20;;
14858;SDS011;7521;51.700;6.874;2022-08-24T00:16:20;7.10;;;2.87;;
14858;SDS011;7521;51.700;6.874;2022-08-24T00:19:26;7.60;;;2.83;;
14858;SDS011;7521;51.700;6.874;2022-08-24T00:22:32;6.77;;;2.97;;
14858;SDS011;7521;51.700;6.874;2022-08-24T00:25:37;8.33;;;3.40;;
14858;SDS011;7521;51.700;6.874;2022-08-24T00:28:42;6.22;;;3.28;;
14858;SDS011;7521;51.700;6.874;2022-08-24T00:31:48;7.85;;;3.95;;
14858;SDS011;7521;51.700;6.874;2022-08-24T00:34:53;12.33;;;4.23;;
14858;SDS011;7521;51.700;6.874;2022-08-24T00:37:59;5.13;;;2.90;;
14858;SDS011;7521;51.700;6.874;2022-08-24T00:41:04;8.07;;;3.28;;
14858;SDS011;7521;51.700;6.874;2022-08-24T00:44:09;11.30;;;3.00;;
14858;SDS011;7521;51.700;6.874;2022-08-24T00:47:18;8.13;;;2.60;;
14858;SDS011;7521;51.700;6.874;2022-08-24T00:50:26;5.07;;;2.70;;
14858;SDS011;7521;51.700;6.874;2022-08-24T00:53:35;7.43;;;3.40;;
14858;SDS011;7521;51.700;6.874;2022-08-24T00:56:42;6.53;;;3.30;;
14858;SDS011;7521;51.700;6.874;2022-08-24T00:59:50;9.37;;;3.07;;
14858;SDS011;7521;51.700;6.874;2022-08-24T01:02:57;7.70;;;2.97;;
14858;SDS011;7521;51.700;6.874;2022-08-24T01:06:05;4.23;;;2.80;;
14858;SDS011;7521;51.700;6.874;2022-08-24T01:09:10;12.10;;;2.80;;
14858;SDS011;7521;51.700;6.874;2022-08-24T01:12:16;8.63;;;3.47;;
14858;SDS011;7521;51.700;6.874;2022-08-24T01:15:21;5.47;;;2.83;;
14858;SDS011;7521;51.700;6.874;2022-08-24T01:18:26;8.20;;;3.40;;
14858;SDS011;7521;51.700;6.874;2022-08-24T01:25:14;6.57;;;3.00;;
14858;SDS011;7521;51.700;6.874;2022-08-24T01:28:19;10.37;;;2.97;;
14858;SDS011;7521;51.700;6.874;2022-08-24T01:31:25;5.13;;;2.87;;
14858;SDS011;7521;51.700;6.874;2022-08-24T01:34:30;10.07;;;3.37;;
14858;SDS011;7521;51.700;6.874;2022-08-24T01:37:35;5.63;;;3.07;;
14858;SDS011;7521;51.700;6.874;2022-08-24T01:40:43;5.77;;;3.33;;
14858;SDS011;7521;51.700;6.874;2022-08-24T01:43:50;4.93;;;3.20;;
14858;SDS011;7521;51.700;6.874;2022-08-24T01:46:55;5.83;;;3.10;;
14858;SDS011;7521;51.700;6.874;2022-08-24T01:50:01;5.20;;;2.93;;
14858;SDS011;7521;51.700;6.874;2022-08-24T01:53:06;8.20;;;3.47;;
14858;SDS011;7521;51.700;6.874;2022-08-24T01:56:12;5.90;;;3.50;;
14858;SDS011;7521;51.700;6.874;2022-08-24T01:59:17;8.77;;;3.30;;
14858;SDS011;7521;51.700;6.874;2022-08-24T02:02:24;9.87;;;4.00;;
14858;SDS011;7521;51.700;6.874;2022-08-24T02:05:31;9.23;;;3.53;;
14858;SDS011;7521;51.700;6.874;2022-08-24T02:08:36;5.53;;;3.40;;
14858;SDS011;7521;51.700;6.874;2022-08-24T02:11:41;10.17;;;3.77;;
14858;SDS011;7521;51.700;6.874;2022-08-24T02:14:47;9.30;;;3.50;;
14858;SDS011;7521;51.700;6.874;2022-08-24T02:17:52;7.27;;;3.80;;
14858;SDS011;7521;51.700;6.874;2022-08-24T02:20:58;13.13;;;3.90;;
14858;SDS011;7521;51.700;6.874;2022-08-24T02:24:03;7.53;;;3.67;;
14858;SDS011;7521;51.700;6.874;2022-08-24T02:27:08;9.87;;;4.17;;
14858;SDS011;7521;51.700;6.874;2022-08-24T02:30:14;8.03;;;3.67;;
14858;SDS011;7521;51.700;6.874;2022-08-24T02:33:19;6.80;;;3.50;;
14858;SDS011;7521;51.700;6.874;2022-08-24T02:36:25;7.30;;;3.30;;
14858;SDS011;7521;51.700;6.874;2022-08-24T02:39:30;8.10;;;4.20;;
14858;SDS011;7521;51.700;6.874;2022-08-24T02:42:35;4.97;;;3.40;;
14858;SDS011;7521;51.700;6.874;2022-08-24T02:45:42;4.83;;;3.40;;
14858;SDS011;7521;51.700;6.874;2022-08-24T02:48:48;7.97;;;3.27;;
14858;SDS011;7521;51.700;6.874;2022-08-24T02:51:53;10.53;;;3.83;;
14858;SDS011;7521;51.700;6.874;2022-08-24T02:54:58;7.70;;;3.70;;
14858;SDS011;7521;51.700;6.874;2022-08-24T02:58:03;7.68;;;3.75;;
14858;SDS011;7521;51.700;6.874;2022-08-24T03:01:09;9.60;;;3.60;;
14858;SDS011;7521;51.700;6.874;2022-08-24T03:04:15;11.53;;;3.87;;
14858;SDS011;7521;51.700;6.874;2022-08-24T03:07:20;5.33;;;3.40;;
14858;SDS011;7521;51.700;6.874;2022-08-24T03:10:25;8.82;;;3.47;;
14858;SDS011;7521;51.700;6.874;2022-08-24T03:13:31;6.77;;;3.27;;
14858;SDS011;7521;51.700;6.874;2022-08-24T03:16:36;8.97;;;3.67;;
14858;SDS011;7521;51.700;6.874;2022-08-24T03:19:42;9.47;;;3.77;;
14858;SDS011;7521;51.700;6.874;2022-08-24T03:22:47;4.55;;;3.03;;
14858;SDS011;7521;51.700;6.874;2022-08-24T03:25:53;9.07;;;3.77;;
14858;SDS011;7521;51.700;6.874;2022-08-24T03:28:58;6.17;;;4.00;;
14858;SDS011;7521;51.700;6.874;2022-08-24T03:32:03;8.85;;;3.88;;
14858;SDS011;7521;51.700;6.874;2022-08-24T03:35:10;5.83;;;4.13;;
14858;SDS011;7521;51.700;6.874;2022-08-24T03:38:15;9.90;;;4.30;;
14858;SDS011;7521;51.700;6.874;2022-08-24T03:41:20;5.70;;;4.10;;
14858;SDS011;7521;51.700;6.874;2022-08-24T03:44:26;5.10;;;3.63;;
14858;SDS011;7521;51.700;6.874;2022-08-24T03:47:31;6.20;;;3.77;;
14858;SDS011;7521;51.700;6.874;2022-08-24T03:50:36;5.47;;;3.72;;
14858;SDS011;7521;51.700;6.874;2022-08-24T03:53:41;7.10;;;4.43;;
14858;SDS011;7521;51.700;6.874;2022-08-24T03:56:46;6.53;;;3.83;;
14858;SDS011;7521;51.700;6.874;2022-08-24T03:59:52;7.03;;;3.63;;
14858;SDS011;7521;51.700;6.874;2022-08-24T04:02:57;6.80;;;3.80;;
14858;SDS011;7521;51.700;6.874;2022-08-24T04:06:02;5.80;;;3.97;;
14858;SDS011;7521;51.700;6.874;2022-08-24T04:09:09;11.17;;;4.37;;
14858;SDS011;7521;51.700;6.874;2022-08-24T04:12:15;6.63;;;4.20;;
14858;SDS011;7521;51.700;6.874;2022-08-24T04:15:20;8.57;;;3.90;;
14858;SDS011;7521;51.700;6.874;2022-08-24T04:18:28;7.60;;;3.60;;
14858;SDS011;7521;51.700;6.874;2022-08-24T04:21:34;7.15;;;3.85;;
14858;SDS011;7521;51.700;6.874;2022-08-24T04:24:40;11.43;;;4.70;;
14858;SDS011;7521;51.700;6.874;2022-08-24T04:27:45;17.17;;;5.07;;
14858;SDS011;7521;51.700;6.874;2022-08-24T04:30:50;17.80;;;5.20;;
14858;SDS011;7521;51.700;6.874;2022-08-24T04:33:56;10.93;;;4.50;;
14858;SDS011;7521;51.700;6.874;2022-08-24T04:37:01;11.93;;;5.37;;
14858;SDS011;7521;51.700;6.874;2022-08-24T04:40:06;9.25;;;4.57;;
14858;SDS011;7521;51.700;6.874;2022-08-24T04:43:12;11.00;;;4.27;;
14858;SDS011;7521;51.700;6.874;2022-08-24T04:46:18;9.57;;;4.80;;
14858;SDS011;7521;51.700;6.874;2022-08-24T04:49:24;9.63;;;4.67;;
14858;SDS011;7521;51.700;6.874;2022-08-24T04:52:29;11.20;;;5.27;;
14858;SDS011;7521;51.700;6.874;2022-08-24T04:55:40;12.98;;;5.10;;
14858;SDS011;7521;51.700;6.874;2022-08-24T04:58:46;21.30;;;5.20;;
14858;SDS011;7521;51.700;6.874;2022-08-24T05:01:51;8.87;;;5.03;;
14858;SDS011;7521;51.700;6.874;2022-08-24T05:04:56;11.38;;;5.10;;
14858;SDS011;7521;51.700;6.874;2022-08-24T05:08:02;10.00;;;5.33;;
14858;SDS011;7521;51.700;6.874;2022-08-24T05:11:07;8.37;;;4.63;;
14858;SDS011;7521;51.700;6.874;2022-08-24T05:14:12;10.52;;;5.57;;
14858;SDS011;7521;51.700;6.874;2022-08-24T05:17:17;12.75;;;5.57;;
14858;SDS011;7521;51.700;6.874;2022-08-24T05:20:22;13.48;;;5.38;;
14858;SDS011;7521;51.700;6.874;2022-08-24T05:23:27;9.67;;;5.77;;
14858;SDS011;7521;51.700;6.874;2022-08-24T05:26:34;12.87;;;6.23;;
14858;SDS011;7521;51.700;6.874;2022-08-24T05:29:39;12.93;;;6.35;;
14858;SDS011;7521;51.700;6.874;2022-08-24T05:32:45;10.97;;;5.90;;
14858;SDS011;7521;51.700;6.874;2022-08-24T05:35:50;12.63;;;6.03;;
14858;SDS011;7521;51.700;6.874;2022-08-24T05:38:57;14.30;;;7.07;;
14858;SDS011;7521;51.700;6.874;2022-08-24T05:42:02;12.17;;;6.53;;
14858;SDS011;7521;51.700;6.874;2022-08-24T05:45:08;10.87;;;5.90;;
14858;SDS011;7521;51.700;6.874;2022-08-24T05:48:14;8.47;;;6.00;;
14858;SDS011;7521;51.700;6.874;2022-08-24T05:51:19;8.27;;;5.87;;
14858;SDS011;7521;51.700;6.874;2022-08-24T05:54:25;29.27;;;7.77;;
14858;SDS011;7521;51.700;6.874;2022-08-24T05:57:32;15.40;;;7.97;;
14858;SDS011;7521;51.700;6.874;2022-08-24T06:00:37;12.40;;;7.47;;
14858;SDS011;7521;51.700;6.874;2022-08-24T06:03:43;14.27;;;7.30;;
14858;SDS011;7521;51.700;6.874;2022-08-24T06:06:48;11.47;;;6.93;;
14858;SDS011;7521;51.700;6.874;2022-08-24T06:09:53;14.87;;;7.13;;
14858;SDS011;7521;51.700;6.874;2022-08-24T06:12:59;8.68;;;7.13;;
14858;SDS011;7521;51.700;6.874;2022-08-24T06:16:09;13.25;;;7.70;;
14858;SDS011;7521;51.700;6.874;2022-08-24T06:19:16;11.23;;;7.40;;
14858;SDS011;7521;51.700;6.874;2022-08-24T06:22:22;13.57;;;7.83;;
14858;SDS011;7521;51.700;6.874;2022-08-24T06:25:27;11.38;;;7.60;;
14858;SDS011;7521;51.700;6.874;2022-08-24T06:28:51;11.10;;;8.80;;
14858;SDS011;7521;51.700;6.874;2022-08-24T06:31:56;13.97;;;10.37;;
14858;SDS011;7521;51.700;6.874;2022-08-24T06:35:01;11.98;;;9.30;;
14858;SDS011;7521;51.700;6.874;2022-08-24T06:38:06;15.00;;;9.87;;
14858;SDS011;7521;51.700;6.874;2022-08-24T06:41:11;16.40;;;9.77;;
14858;SDS011;7521;51.700;6.874;2022-08-24T06:44:17;19.13;;;9.93;;
14858;SDS011;7521;51.700;6.874;2022-08-24T06:47:22;12.27;;;8.60;;
14858;SDS011;7521;51.700;6.874;2022-08-24T06:50:27;13.20;;;7.30;;
14858;SDS011;7521;51.700;6.874;2022-08-24T06:53:32;10.13;;;6.90;;
14858;SDS011;7521;51.700;6.874;2022-08-24T06:56:38;11.63;;;6.78;;
14858;SDS011;7521;51.700;6.874;2022-08-24T06:59:43;12.55;;;7.22;;
14858;SDS011;7521;51.700;6.874;2022-08-24T07:02:48;11.30;;;6.43;;
14858;SDS011;7521;51.700;6.874;2022-08-24T07:05:55;13.57;;;6.32;;
14858;SDS011;7521;51.700;6.874;2022-08-24T07:09:01;11.00;;;6.03;;
14858;SDS011;7521;51.700;6.874;2022-08-24T07:12:06;9.10;;;6.13;;
14858;SDS011;7521;51.700;6.874;2022-08-24T07:15:11;10.50;;;5.40;;
14858;SDS011;7521;51.700;6.874;2022-08-24T07:18:17;8.23;;;6.13;;
14858;SDS011;7521;51.700;6.874;2022-08-24T07:21:23;12.03;;;6.23;;
14858;SDS011;7521;51.700;6.874;2022-08-24T07:24:28;9.10;;;6.50;;
14858;SDS011;7521;51.700;6.874;2022-08-24T07:27:33;9.90;;;6.43;;
14858;SDS011;7521;51.700;6.874;2022-08-24T07:30:39;11.93;;;6.40;;
14858;SDS011;7521;51.700;6.874;2022-08-24T07:33:45;13.77;;;6.63;;
14858;SDS011;7521;51.700;6.874;2022-08-24T07:36:50;12.67;;;6.50;;
14858;SDS011;7521;51.700;6.874;2022-08-24T07:39:56;10.27;;;5.40;;
14858;SDS011;7521;51.700;6.874;2022-08-24T07:43:02;13.43;;;5.80;;
14858;SDS011;7521;51.700;6.874;2022-08-24T07:46:07;11.33;;;5.63;;
14858;SDS011;7521;51.700;6.874;2022-08-24T07:49:12;14.70;;;5.63;;
14858;SDS011;7521;51.700;6.874;2022-08-24T07:52:17;7.88;;;4.88;;
14858;SDS011;7521;51.700;6.874;2022-08-24T07:55:23;13.00;;;4.95;;
14858;SDS011;7521;51.700;6.874;2022-08-24T07:58:28;9.10;;;5.73;;
14858;SDS011;7521;51.700;6.874;2022-08-24T08:01:33;13.07;;;5.47;;
14858;SDS011;7521;51.700;6.874;2022-08-24T08:04:39;9.13;;;3.97;;
14858;SDS011;7521;51.700;6.874;2022-08-24T08:07:44;7.93;;;4.00;;
14858;SDS011;7521;51.700;6.874;2022-08-24T08:10:49;6.43;;;3.80;;
14858;SDS011;7521;51.700;6.874;2022-08-24T08:13:54;10.03;;;4.50;;
14858;SDS011;7521;51.700;6.874;2022-08-24T08:17:00;6.80;;;3.67;;
14858;SDS011;7521;51.700;6.874;2022-08-24T08:20:06;8.60;;;3.70;;
14858;SDS011;7521;51.700;6.874;2022-08-24T08:23:11;12.30;;;4.20;;
14858;SDS011;7521;51.700;6.874;2022-08-24T08:26:35;5.03;;;3.20;;
14858;SDS011;7521;51.700;6.874;2022-08-24T08:29:40;9.67;;;4.73;;
14858;SDS011;7521;51.700;6.874;2022-08-24T08:32:45;5.63;;;3.60;;
14858;SDS011;7521;51.700;6.874;2022-08-24T08:36:12;7.43;;;3.63;;
14858;SDS011;7521;51.700;6.874;2022-08-24T08:39:17;8.30;;;3.50;;
14858;SDS011;7521;51.700;6.874;2022-08-24T09:21:48;6.83;;;2.20;;
14858;SDS011;7521;51.700;6.874;2022-08-24T09:24:59;6.40;;;2.77;;
14858;SDS011;7521;51.700;6.874;2022-08-24T09:28:14;5.93;;;1.90;;
14858;SDS011;7521;51.700;6.874;2022-08-24T09:41:05;9.27;;;2.10;;
14858;SDS011;7521;51.700;6.874;2022-08-24T09:53:56;4.63;;;1.80;;
14858;SDS011;7521;51.700;6.874;2022-08-24T09:57:10;3.07;;;1.50;;
14858;SDS011;7521;51.700;6.874;2022-08-24T10:00:26;4.40;;;1.33;;
14858;SDS011;7521;51.700;6.874;2022-08-24T10:06:56;6.97;;;1.80;;
14858;SDS011;7521;51.700;6.874;2022-08-24T10:10:22;3.40;;;1.50;;
14858;SDS011;7521;51.700;6.874;2022-08-24T10:16:48;4.13;;;1.57;;
14858;SDS011;7521;51.700;6.874;2022-08-24T10:19:59;3.73;;;1.60;;
14858;SDS011;7521;51.700;6.874;2022-08-24T10:23:17;6.73;;;1.63;;
14858;SDS011;7521;51.700;6.874;2022-08-24T10:26:33;2.07;;;1.07;;
14858;SDS011;7521;51.700;6.874;2022-08-24T10:32:54;5.17;;;1.47;;
14858;SDS011;7521;51.700;6.874;2022-08-24T10:36:25;2.33;;;1.50;;
14858;SDS011;7521;51.700;6.874;2022-08-24T10:43:14;2.20;;;1.20;;
14858;SDS011;7521;51.700;6.874;2022-08-24T10:49:58;5.03;;;1.60;;
14858;SDS011;7521;51.700;6.874;2022-08-24T11:00:11;3.27;;;1.30;;
14858;SDS011;7521;51.700;6.874;2022-08-24T11:03:19;3.40;;;1.33;;
14858;SDS011;7521;51.700;6.874;2022-08-24T11:06:28;2.63;;;1.53;;
14858;SDS011;7521;51.700;6.874;2022-08-24T11:09:54;3.97;;;1.63;;
14858;SDS011;7521;51.700;6.874;2022-08-24T11:16:25;2.17;;;1.70;;
14858;SDS011;7521;51.700;6.874;2022-08-24T11:19:33;3.53;;;1.73;;
14858;SDS011;7521;51.700;6.874;2022-08-24T11:22:40;3.83;;;1.80;;
14858;SDS011;7521;51.700;6.874;2022-08-24T11:29:11;5.70;;;1.70;;
14858;SDS011;7521;51.700;6.874;2022-08-24T11:32:30;5.03;;;1.90;;
14858;SDS011;7521;51.700;6.874;2022-08-24T11:35:36;2.70;;;1.57;;
14858;SDS011;7521;51.700;6.874;2022-08-24T11:38:43;9.43;;;1.87;;
14858;SDS011;7521;51.700;6.874;2022-08-24T11:41:58;2.80;;;1.60;;
14858;SDS011;7521;51.700;6.874;2022-08-24T11:45:09;3.53;;;1.60;;
14858;SDS011;7521;51.700;6.874;2022-08-24T11:51:36;6.57;;;1.50;;
14858;SDS011;7521;51.700;6.874;2022-08-24T11:54:48;2.33;;;1.40;;
14858;SDS011;7521;51.700;6.874;2022-08-24T12:14:19;5.38;;;1.60;;
14858;SDS011;7521;51.700;6.874;2022-08-24T12:17:32;4.60;;;2.08;;
14858;SDS011;7521;51.700;6.874;2022-08-24T12:20:40;2.42;;;1.33;;
14858;SDS011;7521;51.700;6.874;2022-08-24T12:23:49;3.30;;;1.70;;
14858;SDS011;7521;51.700;6.874;2022-08-24T12:26:57;2.90;;;1.30;;
14858;SDS011;7521;51.700;6.874;2022-08-24T12:33:16;3.42;;;1.48;;
14858;SDS011;7521;51.700;6.874;2022-08-24T12:36:27;2.95;;;1.42;;
14858;SDS011;7521;51.700;6.874;2022-08-24T12:39:44;3.30;;;1.38;;
14858;SDS011;7521;51.700;6.874;2022-08-24T12:45:59;6.15;;;2.15;;
14858;SDS011;7521;51.700;6.874;2022-08-24T12:49:07;5.82;;;1.60;;
14858;SDS011;7521;51.700;6.874;2022-08-24T12:52:44;3.35;;;1.73;;
14858;SDS011;7521;51.700;6.874;2022-08-24T12:59:11;3.47;;;1.42;;
14858;SDS011;7521;51.700;6.874;2022-08-24T13:05:24;4.65;;;1.60;;
14858;SDS011;7521;51.700;6.874;2022-08-24T13:08:34;2.92;;;1.42;;
14858;SDS011;7521;51.700;6.874;2022-08-24T13:11:39;3.45;;;1.42;;
14858;SDS011;7521;51.700;6.874;2022-08-24T13:14:48;5.07;;;1.52;;
14858;SDS011;7521;51.700;6.874;2022-08-24T13:21:15;3.47;;;1.58;;
14858;SDS011;7521;51.700;6.874;2022-08-24T13:33:58;3.28;;;1.40;;
14858;SDS011;7521;51.700;6.874;2022-08-24T13:40:18;3.33;;;1.33;;
14858;SDS011;7521;51.700;6.874;2022-08-24T13:43:29;4.97;;;1.50;;
14858;SDS011;7521;51.700;6.874;2022-08-24T14:02:59;6.10;;;1.65;;
14858;SDS011;7521;51.700;6.874;2022-08-24T14:15:47;3.28;;;1.20;;
14858;SDS011;7521;51.700;6.874;2022-08-24T14:22:14;4.53;;;1.08;;
14858;SDS011;7521;51.700;6.874;2022-08-24T14:25:25;4.10;;;1.52;;
14858;SDS011;7521;51.700;6.874;2022-08-24T14:28:36;3.40;;;1.20;;
14858;SDS011;7521;51.700;6.874;2022-08-24T14:41:33;3.90;;;1.70;;
14858;SDS011;7521;51.700;6.874;2022-08-24T14:44:45;3.05;;;1.60;;
14858;SDS011;7521;51.700;6.874;2022-08-24T14:51:51;1.98;;;1.13;;
14858;SDS011;7521;51.700;6.874;2022-08-24T15:07:40;3.85;;;1.80;;
14858;SDS011;7521;51.700;6.874;2022-08-24T15:10:57;3.60;;;1.60;;
14858;SDS011;7521;51.700;6.874;2022-08-24T15:14:05;5.13;;;1.70;;
14858;SDS011;7521;51.700;6.874;2022-08-24T15:17:13;6.32;;;1.42;;
14858;SDS011;7521;51.700;6.874;2022-08-24T15:20:35;4.65;;;1.52;;
14858;SDS011;7521;51.700;6.874;2022-08-24T15:23:46;4.15;;;1.60;;
14858;SDS011;7521;51.700;6.874;2022-08-24T15:30:03;3.63;;;1.48;;
14858;SDS011;7521;51.700;6.874;2022-08-24T15:33:16;2.53;;;1.30;;
14858;SDS011;7521;51.700;6.874;2022-08-24T15:36:23;2.08;;;1.40;;
14858;SDS011;7521;51.700;6.874;2022-08-24T15:39:28;5.97;;;2.15;;
14858;SDS011;7521;51.700;6.874;2022-08-24T15:42:34;4.10;;;1.77;;
14858;SDS011;7521;51.700;6.874;2022-08-24T15:45:42;3.65;;;1.77;;
14858;SDS011;7521;51.700;6.874;2022-08-24T15:48:48;5.80;;;2.40;;
14858;SDS011;7521;51.700;6.874;2022-08-24T15:52:01;3.25;;;1.83;;
14858;SDS011;7521;51.700;6.874;2022-08-24T15:55:07;2.55;;;1.40;;
14858;SDS011;7521;51.700;6.874;2022-08-24T15:58:30;5.32;;;2.00;;
14858;SDS011;7521;51.700;6.874;2022-08-24T16:01:36;3.35;;;2.03;;
14858;SDS011;7521;51.700;6.874;2022-08-24T16:12:20;3.47;;;1.70;;
14858;SDS011;7521;51.700;6.874;2022-08-24T16:15:26;5.35;;;1.88;;
14858;SDS011;7521;51.700;6.874;2022-08-24T16:18:48;3.58;;;1.52;;
14858;SDS011;7521;51.700;6.874;2022-08-24T16:21:58;8.65;;;1.55;;
14858;SDS011;7521;51.700;6.874;2022-08-24T16:34:48;3.83;;;2.00;;
14858;SDS011;7521;51.700;6.874;2022-08-24T16:37:54;3.22;;;1.70;;
14858;SDS011;7521;51.700;6.874;2022-08-24T16:41:00;2.65;;;1.67;;
14858;SDS011;7521;51.700;6.874;2022-08-24T16:44:06;4.13;;;1.73;;
14858;SDS011;7521;51.700;6.874;2022-08-24T16:47:12;4.43;;;1.40;;
14858;SDS011;7521;51.700;6.874;2022-08-24T16:50:18;4.07;;;1.60;;
14858;SDS011;7521;51.700;6.874;2022-08-24T16:53:23;2.00;;;1.50;;
14858;SDS011;7521;51.700;6.874;2022-08-24T16:56:29;2.40;;;1.63;;
14858;SDS011;7521;51.700;6.874;2022-08-24T16:59:35;3.08;;;1.50;;
14858;SDS011;7521;51.700;6.874;2022-08-24T17:02:40;2.63;;;1.42;;
14858;SDS011;7521;51.700;6.874;2022-08-24T17:05:46;8.25;;;2.33;;
14858;SDS011;7521;51.700;6.874;2022-08-24T17:08:51;2.47;;;1.70;;
14858;SDS011;7521;51.700;6.874;2022-08-24T17:11:57;2.25;;;1.38;;
14858;SDS011;7521;51.700;6.874;2022-08-24T17:15:06;2.17;;;1.50;;
14858;SDS011;7521;51.700;6.874;2022-08-24T17:18:12;1.73;;;1.40;;
14858;SDS011;7521;51.700;6.874;2022-08-24T17:21:18;3.90;;;1.55;;
14858;SDS011;7521;51.700;6.874;2022-08-24T17:24:23;4.78;;;1.55;;
14858;SDS011;7521;51.700;6.874;2022-08-24T17:27:29;1.70;;;1.27;;
14858;SDS011;7521;51.700;6.874;2022-08-24T17:30:35;5.30;;;1.75;;
14858;SDS011;7521;51.700;6.874;2022-08-24T17:33:40;2.75;;;1.50;;
14858;SDS011;7521;51.700;6.874;2022-08-24T17:36:49;3.85;;;1.65;;
14858;SDS011;7521;51.700;6.874;2022-08-24T17:39:55;5.07;;;1.70;;
14858;SDS011;7521;51.700;6.874;2022-08-24T17:43:01;2.40;;;1.50;;
14858;SDS011;7521;51.700;6.874;2022-08-24T17:46:07;4.57;;;1.73;;
14858;SDS011;7521;51.700;6.874;2022-08-24T17:49:14;4.85;;;1.80;;
14858;SDS011;7521;51.700;6.874;2022-08-24T17:52:19;4.50;;;1.75;;
14858;SDS011;7521;51.700;6.874;2022-08-24T17:55:24;3.22;;;1.63;;
14858;SDS011;7521;51.700;6.874;2022-08-24T17:58:29;3.53;;;1.80;;
14858;SDS011;7521;51.700;6.874;2022-08-24T18:01:35;3.03;;;1.90;;
14858;SDS011;7521;51.700;6.874;2022-08-24T18:04:40;5.78;;;1.80;;
14858;SDS011;7521;51.700;6.874;2022-08-24T18:07:46;2.88;;;1.55;;
14858;SDS011;7521;51.700;6.874;2022-08-24T18:10:52;2.25;;;1.42;;
14858;SDS011;7521;51.700;6.874;2022-08-24T18:13:57;3.17;;;1.50;;
14858;SDS011;7521;51.700;6.874;2022-08-24T18:17:07;2.80;;;1.67;;
14858;SDS011;7521;51.700;6.874;2022-08-24T18:20:14;4.27;;;1.60;;
14858;SDS011;7521;51.700;6.874;2022-08-24T18:23:20;2.85;;;1.60;;
14858;SDS011;7521;51.700;6.874;2022-08-24T18:26:26;8.95;;;1.80;;
14858;SDS011;7521;51.700;6.874;2022-08-24T18:29:32;2.80;;;1.60;;
14858;SDS011;7521;51.700;6.874;2022-08-24T18:32:37;5.70;;;1.60;;
14858;SDS011;7521;51.700;6.874;2022-08-24T18:35:42;3.23;;;1.77;;
14858;SDS011;7521;51.700;6.874;2022-08-24T18:38:49;2.73;;;1.77;;
14858;SDS011;7521;51.700;6.874;2022-08-24T18:41:55;3.83;;;1.60;;
14858;SDS011;7521;51.700;6.874;2022-08-24T18:45:01;2.70;;;1.50;;
14858;SDS011;7521;51.700;6.874;2022-08-24T18:48:07;1.93;;;1.20;;
14858;SDS011;7521;51.700;6.874;2022-08-24T18:51:12;3.80;;;2.10;;
14858;SDS011;7521;51.700;6.874;2022-08-24T18:54:21;3.13;;;1.90;;
14858;SDS011;7521;51.700;6.874;2022-08-24T18:57:27;1.93;;;1.53;;
14858;SDS011;7521;51.700;6.874;2022-08-24T19:00:33;6.17;;;2.07;;
14858;SDS011;7521;51.700;6.874;2022-08-24T19:03:38;4.13;;;1.80;;
14858;SDS011;7521;51.700;6.874;2022-08-24T19:06:43;1.63;;;1.40;;
14858;SDS011;7521;51.700;6.874;2022-08-24T19:09:48;4.10;;;1.97;;
14858;SDS011;7521;51.700;6.874;2022-08-24T19:12:58;4.33;;;1.83;;
14858;SDS011;7521;51.700;6.874;2022-08-24T19:16:03;2.37;;;1.60;;
14858;SDS011;7521;51.700;6.874;2022-08-24T19:19:09;3.80;;;1.87;;
14858;SDS011;7521;51.700;6.874;2022-08-24T19:22:16;2.80;;;1.77;;
14858;SDS011;7521;51.700;6.874;2022-08-24T19:25:22;3.80;;;1.70;;
14858;SDS011;7521;51.700;6.874;2022-08-24T19:28:28;3.80;;;1.77;;
14858;SDS011;7521;51.700;6.874;2022-08-24T19:31:33;4.77;;;1.57;;
14858;SDS011;7521;51.700;6.874;2022-08-24T19:34:39;4.43;;;1.83;;
14858;SDS011;7521;51.700;6.874;2022-08-24T19:37:44;1.93;;;1.57;;
14858;SDS011;7521;51.700;6.874;2022-08-24T19:40:52;3.67;;;1.87;;
14858;SDS011;7521;51.700;6.874;2022-08-24T19:43:57;2.67;;;1.63;;
14858;SDS011;7521;51.700;6.874;2022-08-24T19:47:31;3.27;;;2.53;;
14858;SDS011;7521;51.700;6.874;2022-08-24T19:50:38;3.30;;;1.87;;
14858;SDS011;7521;51.700;6.874;2022-08-24T19:53:44;4.57;;;2.37;;
14858;SDS011;7521;51.700;6.874;2022-08-24T19:56:50;3.53;;;2.20;;
14858;SDS011;7521;51.700;6.874;2022-08-24T19:59:59;3.20;;;1.83;;
14858;SDS011;7521;51.700;6.874;2022-08-24T20:03:07;2.90;;;1.73;;
14858;SDS011;7521;51.700;6.874;2022-08-24T20:06:13;2.00;;;1.60;;
14858;SDS011;7521;51.700;6.874;2022-08-24T20:09:18;1.90;;;1.60;;
14858;SDS011;7521;51.700;6.874;2022-08-24T20:12:23;2.40;;;1.73;;
14858;SDS011;7521;51.700;6.874;2022-08-24T20:15:28;3.67;;;1.87;;
14858;SDS011;7521;51.700;6.874;2022-08-24T20:18:33;1.80;;;1.37;;
14858;SDS011;7521;51.700;6.874;2022-08-24T20:21:39;3.33;;;2.00;;
14858;SDS011;7521;51.700;6.874;2022-08-24T20:24:44;2.50;;;2.00;;
14858;SDS011;7521;51.700;6.874;2022-08-24T20:27:50;3.37;;;1.90;;
14858;SDS011;7521;51.700;6.874;2022-08-24T20:30:55;2.50;;;1.77;;
14858;SDS011;7521;51.700;6.874;2022-08-24T20:34:01;5.57;;;1.93;;
14858;SDS011;7521;51.700;6.874;2022-08-24T20:37:06;3.17;;;2.40;;
14858;SDS011;7521;51.700;6.874;2022-08-24T20:40:13;4.30;;;2.43;;
14858;SDS011;7521;51.700;6.874;2022-08-24T20:43:18;6.13;;;2.30;;
14858;SDS011;7521;51.700;6.874;2022-08-24T20:46:25;7.83;;;2.40;;
14858;SDS011;7521;51.700;6.874;2022-08-24T20:49:30;7.97;;;2.37;;
14858;SDS011;7521;51.700;6.874;2022-08-24T20:52:36;8.77;;;2.70;;
14858;SDS011;7521;51.700;6.874;2022-08-24T20:55:41;4.88;;;2.75;;
14858;SDS011;7521;51.700;6.874;2022-08-24T20:58:46;5.03;;;1.90;;
14858;SDS011;7521;51.700;6.874;2022-08-24T21:01:52;4.47;;;2.13;;
14858;SDS011;7521;51.700;6.874;2022-08-24T21:04:59;6.03;;;2.33;;
14858;SDS011;7521;51.700;6.874;2022-08-24T21:08:05;5.13;;;2.27;;
14858;SDS011;7521;51.700;6.874;2022-08-24T21:11:10;5.77;;;2.17;;
14858;SDS011;7521;51.700;6.874;2022-08-24T21:14:16;3.37;;;1.90;;
14858;SDS011;7521;51.700;6.874;2022-08-24T21:17:21;3.33;;;1.87;;
14858;SDS011;7521;51.700;6.874;2022-08-24T21:20:27;4.00;;;2.10;;
14858;SDS011;7521;51.700;6.874;2022-08-24T21:23:33;5.23;;;1.97;;
14858;SDS011;7521;51.700;6.874;2022-08-24T21:26:38;2.57;;;1.77;;
14858;SDS011;7521;51.700;6.874;2022-08-24T21:29:43;7.23;;;2.10;;
14858;SDS011;7521;51.700;6.874;2022-08-24T21:32:49;3.03;;;2.10;;
14858;SDS011;7521;51.700;6.874;2022-08-24T21:36:12;2.17;;;1.67;;
14858;SDS011;7521;51.700;6.874;2022-08-24T21:39:18;3.60;;;2.47;;
14858;SDS011;7521;51.700;6.874;2022-08-24T21:42:24;4.43;;;2.13;;
14858;SDS011;7521;51.700;6.874;2022-08-24T21:45:29;5.40;;;2.40;;
14858;SDS011;7521;51.700;6.874;2022-08-24T21:48:36;5.83;;;2.30;;
14858;SDS011;7521;51.700;6.874;2022-08-24T21:51:41;4.97;;;1.93;;
14858;SDS011;7521;51.700;6.874;2022-08-24T21:54:46;3.27;;;1.73;;
14858;SDS011;7521;51.700;6.874;2022-08-24T21:57:52;4.43;;;2.33;;
14858;SDS011;7521;51.700;6.874;2022-08-24T22:00:57;4.33;;;1.77;;
14858;SDS011;7521;51.700;6.874;2022-08-24T22:04:03;2.63;;;2.00;;
14858;SDS011;7521;51.700;6.874;2022-08-24T22:07:08;4.07;;;2.20;;
14858;SDS011;7521;51.700;6.874;2022-08-24T22:10:14;4.90;;;2.30;;
14858;SDS011;7521;51.700;6.874;2022-08-24T22:13:19;4.60;;;2.23;;
14858;SDS011;7521;51.700;6.874;2022-08-24T22:16:24;2.63;;;2.00;;
14858;SDS011;7521;51.700;6.874;2022-08-24T22:19:29;4.33;;;2.17;;
14858;SDS011;7521;51.700;6.874;2022-08-24T22:22:35;4.07;;;2.33;;
14858;SDS011;7521;51.700;6.874;2022-08-24T22:25:41;3.90;;;1.90;;
14858;SDS011;7521;51.700;6.874;2022-08-24T22:28:46;2.90;;;2.00;;
14858;SDS011;7521;51.700;6.874;2022-08-24T22:31:52;5.07;;;2.20;;
14858;SDS011;7521;51.700;6.874;2022-08-24T22:34:57;8.57;;;2.37;;
14858;SDS011;7521;51.700;6.874;2022-08-24T22:38:02;7.30;;;2.70;;